createdAt,value
2019-05-02T00:00:32.794Z,9.20
2019-05-02T00:03:04.556Z,9.20
2019-05-02T00:05:33.576Z,9.10
2019-05-02T00:08:02.464Z,9.10
2019-05-02T00:10:31.481Z,9.10
2019-05-02T00:13:00.300Z,9.10
2019-05-02T00:15:33.147Z,9.10
2019-05-02T00:18:01.347Z,9.00
2019-05-02T00:20:30.196Z,9.00
2019-05-02T00:22:59.002Z,8.80
2019-05-02T00:25:27.807Z,8.70
2019-05-02T00:27:56.924Z,8.60
2019-05-02T00:30:29.875Z,8.50
2019-05-02T00:32:58.199Z,8.30
2019-05-02T00:35:26.928Z,8.00
2019-05-02T00:37:57.496Z,7.80
2019-05-02T00:40:27.797Z,7.70
2019-05-02T00:42:58.138Z,7.60
2019-05-02T00:45:27.460Z,7.50
2019-05-02T00:48:01.077Z,7.40
2019-05-02T00:50:31.521Z,7.30
2019-05-02T00:53:00.324Z,7.20
2019-05-02T00:55:33.762Z,7.10
2019-05-02T00:57:59.674Z,7.10
2019-05-02T01:00:30.221Z,7.10
2019-05-02T01:03:03.528Z,7.10
2019-05-02T01:05:33.713Z,7.10
2019-05-02T01:08:03.102Z,7.10
2019-05-02T01:10:32.094Z,7.10
2019-05-02T01:13:01.105Z,7.10
2019-05-02T01:15:30.014Z,7.10
2019-05-02T01:18:01.127Z,7.10
2019-05-02T01:20:29.570Z,7.10
2019-05-02T01:22:58.374Z,7.10
2019-05-02T01:25:27.283Z,7.00
2019-05-02T01:28:17.618Z,7.10
2019-05-02T01:30:50.684Z,7.10
2019-05-02T01:33:21.147Z,7.00
2019-05-02T01:35:51.566Z,7.00
2019-05-02T01:38:26.406Z,7.00
2019-05-02T01:40:55.527Z,7.00
2019-05-02T01:43:26.456Z,7.00
2019-05-02T01:45:55.885Z,7.00
2019-05-02T01:48:25.304Z,7.00
2019-05-02T01:50:54.207Z,7.00
2019-05-02T01:53:23.527Z,7.00
2019-05-02T01:55:57.259Z,7.00
2019-05-02T01:58:23.101Z,7.00
2019-05-02T02:00:51.907Z,7.00
2019-05-02T02:03:21.510Z,7.00
2019-05-02T02:05:50.333Z,7.00
2019-05-02T02:08:19.243Z,7.10
2019-05-02T02:10:50.560Z,7.00
2019-05-02T02:13:18.595Z,7.10
2019-05-02T02:15:47.605Z,7.10
2019-05-02T02:18:17.445Z,7.10
2019-05-02T02:21:04.353Z,7.10
2019-05-02T02:23:51.168Z,7.20
2019-05-02T02:26:21.715Z,7.10
2019-05-02T02:28:50.520Z,7.10
2019-05-02T02:31:21.065Z,7.20
2019-05-02T02:33:50.830Z,7.20
2019-05-02T02:36:30.015Z,7.20
2019-05-02T02:38:50.344Z,7.20
2019-05-02T02:41:20.074Z,7.20
2019-05-02T02:44:03.048Z,7.20
2019-05-02T02:46:40.217Z,7.20
2019-05-02T02:49:14.335Z,7.20
2019-05-02T02:51:39.758Z,7.30
2019-05-02T02:54:08.558Z,7.30
2019-05-02T02:56:40.729Z,7.30
2019-05-02T02:59:07.911Z,7.30
2019-05-02T03:01:36.816Z,7.40
2019-05-02T03:04:09.364Z,7.40
2019-05-02T03:06:38.265Z,7.40
2019-05-02T03:09:06.755Z,7.50
2019-05-02T03:11:37.258Z,7.50
2019-05-02T03:14:09.611Z,7.50
2019-05-02T03:16:46.190Z,7.60
2019-05-02T03:19:14.862Z,7.70
2019-05-02T03:21:42.613Z,7.60
2019-05-02T03:24:11.525Z,7.70
2019-05-02T03:26:40.326Z,7.70
2019-05-02T03:29:09.236Z,7.80
2019-05-02T03:31:38.039Z,7.80
2019-05-02T03:34:06.844Z,7.80
2019-05-02T03:36:37.225Z,7.90
2019-05-02T03:39:15.332Z,8.00
2019-05-02T03:41:37.864Z,8.00
2019-05-02T03:44:11.150Z,8.10
2019-05-02T03:46:37.113Z,8.10
2019-05-02T03:49:09.267Z,8.20
2019-05-02T03:51:36.875Z,8.20
2019-05-02T03:54:09.918Z,8.30
2019-05-02T03:56:37.101Z,8.40
2019-05-02T03:59:05.952Z,8.60
2019-05-02T04:01:41.467Z,8.70
2019-05-02T04:04:05.812Z,8.80
2019-05-02T04:06:35.009Z,8.80
2019-05-02T04:09:05.985Z,8.90
2019-05-02T04:11:39.193Z,8.90
2019-05-02T04:14:15.219Z,9.00
2019-05-02T04:16:36.089Z,9.00
2019-05-02T04:19:05.196Z,9.10
2019-05-02T04:21:34.461Z,9.10
2019-05-02T04:24:12.942Z,9.10
2019-05-02T04:26:34.787Z,9.10
2019-05-02T04:29:03.691Z,9.10
2019-05-02T04:31:33.818Z,9.20
2019-05-02T04:34:13.622Z,9.20
2019-05-02T04:36:33.694Z,9.20
2019-05-02T04:39:05.805Z,9.30
2019-05-02T04:41:34.439Z,9.30
2019-05-02T04:44:03.690Z,9.30
2019-05-02T04:46:32.513Z,9.40
2019-05-02T04:49:01.412Z,9.40
2019-05-02T04:51:31.940Z,9.40
2019-05-02T04:54:00.759Z,9.40
2019-05-02T04:56:29.660Z,9.40
2019-05-02T04:59:01.412Z,9.50
2019-05-02T05:01:33.108Z,9.40
2019-05-02T05:04:03.106Z,9.50
2019-05-02T05:06:30.000Z,9.50
2019-05-02T05:09:04.061Z,9.50
2019-05-02T05:11:29.452Z,9.60
2019-05-02T05:14:00.346Z,9.60
2019-05-02T05:16:28.905Z,9.60
2019-05-02T05:18:57.824Z,9.70
2019-05-02T05:21:28.573Z,9.70
2019-05-02T05:24:01.402Z,9.70
2019-05-02T05:26:33.774Z,9.70
2019-05-02T05:29:01.836Z,9.80
2019-05-02T05:31:30.657Z,9.80
2019-05-02T05:33:59.550Z,9.90
2019-05-02T05:36:32.526Z,9.90
2019-05-02T05:39:02.923Z,9.90
2019-05-02T05:41:29.551Z,10.00
2019-05-02T05:43:59.556Z,10.10
2019-05-02T05:46:28.499Z,10.20
2019-05-02T05:48:58.491Z,10.20
2019-05-02T05:51:27.817Z,10.20
2019-05-02T05:54:02.621Z,10.10
2019-05-02T05:56:27.931Z,10.20
2019-05-02T05:58:59.136Z,10.20
2019-05-02T06:01:34.002Z,10.30
2019-05-02T06:03:58.317Z,10.40
2019-05-02T06:06:28.930Z,10.60
2019-05-02T06:08:57.767Z,10.60
2019-05-02T06:11:26.675Z,10.60
2019-05-02T06:13:55.685Z,10.60
2019-05-02T06:16:24.593Z,10.50
2019-05-02T06:18:53.608Z,10.40
2019-05-02T06:21:22.390Z,10.50
2019-05-02T06:23:51.216Z,10.40
2019-05-02T06:26:20.109Z,10.40
2019-05-02T06:28:49.338Z,10.40
2019-05-02T06:31:18.245Z,10.50
2019-05-02T06:33:47.154Z,10.50
2019-05-02T06:36:16.163Z,10.60
2019-05-02T06:38:45.070Z,10.60
2019-05-02T06:41:16.116Z,10.80
2019-05-02T06:43:46.523Z,10.90
2019-05-02T06:46:16.562Z,11.00
2019-05-02T06:48:48.141Z,11.10
2019-05-02T06:51:19.613Z,11.10
2019-05-02T06:53:48.794Z,11.20
2019-05-02T06:56:17.333Z,11.30
2019-05-02T06:58:46.260Z,11.40
2019-05-02T07:01:16.166Z,11.30
2019-05-02T07:03:46.172Z,11.30
2019-05-02T07:06:16.651Z,11.10
2019-05-02T07:08:45.685Z,11.00
2019-05-02T07:11:14.587Z,11.00
2019-05-02T07:13:43.860Z,10.90
2019-05-02T07:16:37.243Z,10.90
2019-05-02T07:18:52.463Z,10.80
2019-05-02T07:21:23.649Z,10.80
2019-05-02T07:23:53.502Z,10.70
2019-05-02T07:26:23.315Z,10.70
2019-05-02T07:28:52.481Z,10.70
2019-05-02T07:31:21.406Z,10.60
2019-05-02T07:33:50.311Z,10.60
2019-05-02T07:36:19.322Z,10.60
2019-05-02T07:38:48.229Z,10.60
2019-05-02T07:41:17.237Z,10.50
2019-05-02T07:43:46.253Z,10.40
2019-05-02T07:46:16.228Z,10.30
2019-05-02T07:48:48.876Z,10.30
2019-05-02T07:51:20.882Z,10.30
2019-05-02T07:53:48.538Z,10.20
2019-05-02T07:56:18.979Z,10.20
2019-05-02T07:58:48.163Z,10.20
2019-05-02T08:01:17.201Z,10.20
2019-05-02T08:03:46.111Z,10.20
2019-05-02T08:06:15.018Z,10.20
2019-05-02T08:08:43.928Z,10.20
2019-05-02T08:11:12.830Z,10.20
2019-05-02T08:13:41.729Z,10.20
2019-05-02T08:16:10.647Z,10.20
2019-05-02T08:18:39.662Z,10.20
2019-05-02T08:21:08.462Z,10.20
2019-05-02T08:23:37.506Z,10.20
2019-05-02T08:26:06.384Z,10.30
2019-05-02T08:28:36.927Z,10.20
2019-05-02T08:31:05.839Z,10.20
2019-05-02T08:33:35.909Z,10.20
2019-05-02T08:36:04.875Z,10.20
2019-05-02T08:38:33.684Z,10.20
2019-05-02T08:41:02.594Z,10.20
2019-05-02T08:43:31.601Z,10.30
2019-05-02T08:46:00.513Z,10.30
2019-05-02T08:48:29.399Z,10.40
2019-05-02T08:50:58.528Z,10.40
2019-05-02T08:53:27.435Z,10.40
2019-05-02T08:55:56.346Z,10.40
2019-05-02T08:58:25.255Z,10.30
2019-05-02T09:00:54.140Z,10.30
2019-05-02T09:03:24.193Z,10.30
2019-05-02T09:06:05.291Z,10.30
2019-05-02T09:08:24.145Z,10.40
2019-05-02T09:10:52.966Z,10.50
2019-05-02T09:13:25.964Z,10.50
2019-05-02T09:15:54.279Z,10.60
2019-05-02T09:18:29.927Z,10.70
2019-05-02T09:20:56.596Z,10.70
2019-05-02T09:23:27.448Z,10.70
2019-05-02T09:25:54.497Z,10.70
2019-05-02T09:28:25.403Z,10.60
2019-05-02T09:30:57.300Z,10.60
2019-05-02T09:33:24.394Z,10.60
2019-05-02T09:35:53.299Z,10.60
2019-05-02T09:38:22.273Z,10.60
2019-05-02T09:40:54.500Z,10.50
2019-05-02T09:43:22.888Z,10.40
2019-05-02T09:45:52.105Z,10.50
2019-05-02T09:48:22.875Z,10.50
2019-05-02T09:50:52.852Z,10.50
2019-05-02T09:53:25.483Z,10.60
2019-05-02T09:55:57.292Z,10.60
2019-05-02T09:58:23.971Z,10.70
2019-05-02T10:00:57.728Z,10.70
2019-05-02T10:03:26.635Z,10.60
2019-05-02T10:05:55.445Z,10.60
2019-05-02T10:08:24.352Z,10.60
2019-05-02T10:10:53.367Z,10.60
2019-05-02T10:13:22.832Z,10.60
2019-05-02T10:15:52.806Z,10.60
2019-05-02T10:18:25.511Z,10.50
2019-05-02T10:20:52.599Z,10.40
2019-05-02T10:23:23.432Z,10.40
2019-05-02T10:25:52.264Z,10.30
2019-05-02T10:28:22.846Z,10.50
2019-05-02T10:30:56.514Z,10.40
2019-05-02T10:33:22.699Z,10.40
2019-05-02T10:35:52.504Z,10.40
2019-05-02T10:38:23.335Z,10.40
2019-05-02T10:40:54.791Z,10.40
2019-05-02T10:43:22.669Z,10.40
2019-05-02T10:45:56.496Z,10.40
2019-05-02T10:48:28.257Z,10.40
2019-05-02T10:50:55.944Z,10.40
2019-05-02T10:53:24.747Z,10.40
2019-05-02T10:55:54.578Z,10.50
2019-05-02T10:58:31.024Z,10.50
2019-05-02T11:00:54.033Z,10.50
2019-05-02T11:03:27.236Z,10.50
2019-05-02T11:06:05.685Z,10.40
2019-05-02T11:08:31.934Z,10.50
2019-05-02T11:11:02.366Z,10.50
2019-05-02T11:13:42.722Z,10.70
2019-05-02T11:16:21.559Z,10.70
2019-05-02T11:18:54.661Z,10.70
2019-05-02T11:21:23.669Z,10.70
2019-05-02T11:23:52.679Z,10.70
2019-05-02T11:26:25.068Z,10.60
2019-05-02T11:28:52.338Z,10.60
2019-05-02T11:31:21.867Z,10.50
2019-05-02T11:33:52.648Z,10.60
2019-05-02T11:36:22.463Z,10.60
2019-05-02T11:39:00.011Z,10.50
2019-05-02T11:41:22.465Z,10.40
2019-05-02T11:43:54.114Z,10.50
2019-05-02T11:46:22.264Z,10.50
2019-05-02T11:48:56.418Z,10.60
2019-05-02T11:51:22.739Z,10.60
2019-05-02T11:53:52.606Z,10.60
2019-05-02T11:56:22.289Z,10.70
2019-05-02T11:58:52.859Z,10.70
2019-05-02T12:01:35.007Z,10.70
2019-05-02T12:03:53.218Z,10.70
2019-05-02T12:06:22.554Z,10.60
2019-05-02T12:08:52.632Z,10.60
2019-05-02T12:11:22.940Z,10.50
2019-05-02T12:13:56.767Z,10.40
2019-05-02T12:16:23.166Z,10.30
2019-05-02T12:18:53.823Z,10.20
2019-05-02T12:21:23.010Z,10.20
2019-05-02T12:23:52.850Z,10.20
2019-05-02T12:26:22.222Z,10.10
2019-05-02T12:28:52.748Z,10.10
2019-05-02T12:31:32.142Z,10.00
2019-05-02T12:34:02.636Z,10.00
2019-05-02T12:36:33.108Z,10.00
2019-05-02T12:39:02.435Z,10.00
2019-05-02T12:41:33.074Z,10.00
2019-05-02T12:44:02.427Z,10.00
2019-05-02T12:46:31.874Z,10.00
2019-05-02T12:49:02.643Z,10.00
2019-05-02T12:51:32.001Z,10.00
2019-05-02T12:54:02.232Z,10.00
2019-05-02T12:56:32.340Z,10.00
2019-05-02T12:59:02.659Z,9.90
2019-05-02T13:01:32.998Z,9.90
2019-05-02T13:04:04.078Z,9.90
2019-05-02T13:06:33.020Z,9.90
2019-05-02T13:09:03.094Z,9.90
2019-05-02T13:11:36.957Z,9.90
2019-05-02T13:14:05.262Z,9.90
2019-05-02T13:16:34.423Z,9.90
2019-05-02T13:19:06.220Z,9.90
2019-05-02T13:21:58.254Z,10.00
2019-05-02T13:24:29.346Z,10.00
2019-05-02T13:26:59.312Z,10.00
2019-05-02T13:29:28.540Z,10.10
2019-05-02T13:32:08.790Z,10.20
2019-05-02T13:34:48.762Z,10.20
2019-05-02T13:37:17.358Z,10.20
2019-05-02T13:39:52.931Z,10.30
2019-05-02T13:42:22.142Z,10.40
2019-05-02T13:45:07.634Z,10.60
2019-05-02T13:47:36.539Z,10.50
2019-05-02T13:50:07.764Z,10.60
2019-05-02T13:52:35.889Z,10.50
2019-05-02T13:55:08.236Z,10.40
2019-05-02T13:57:43.147Z,10.20
2019-05-02T14:00:07.978Z,10.20
2019-05-02T14:02:42.719Z,10.10
2019-05-02T14:05:13.712Z,10.10
2019-05-02T14:07:48.318Z,10.20
2019-05-02T14:10:26.294Z,10.20
2019-05-02T14:12:59.697Z,10.30
2019-05-02T14:15:32.298Z,10.20
2019-05-02T14:18:02.525Z,10.30
2019-05-02T14:20:33.100Z,10.40
2019-05-02T14:23:02.283Z,10.50
2019-05-02T14:25:32.201Z,10.50
2019-05-02T14:28:02.913Z,10.50
2019-05-02T14:30:39.920Z,10.40
2019-05-02T14:33:03.958Z,10.40
2019-05-02T14:35:37.150Z,10.40
2019-05-02T14:38:12.821Z,10.50
2019-05-02T14:41:02.795Z,10.50
2019-05-02T14:43:53.177Z,10.50
2019-05-02T14:46:22.717Z,10.60
2019-05-02T14:48:52.335Z,10.60
2019-05-02T14:51:25.884Z,10.60
2019-05-02T14:53:52.685Z,10.60
2019-05-02T14:56:27.271Z,10.50
2019-05-02T14:58:56.281Z,10.50
2019-05-02T15:01:26.276Z,10.40
2019-05-02T15:03:58.335Z,10.40
2019-05-02T15:06:25.973Z,10.30
2019-05-02T15:08:55.904Z,10.00
2019-05-02T15:11:30.911Z,9.70
2019-05-02T15:13:55.664Z,9.60
2019-05-02T15:16:33.386Z,9.50
2019-05-02T15:18:57.044Z,9.50
2019-05-02T15:21:27.197Z,9.60
2019-05-02T15:23:57.941Z,9.60
2019-05-02T15:26:31.176Z,9.70
2019-05-02T15:28:57.093Z,9.70
2019-05-02T15:31:29.152Z,9.80
2019-05-02T15:34:01.506Z,9.90
2019-05-02T15:36:32.279Z,9.90
2019-05-02T15:41:32.670Z,9.80
2019-05-02T15:44:02.029Z,9.80
2019-05-02T15:46:31.929Z,9.80
2019-05-02T15:49:01.877Z,9.80
2019-05-02T15:51:32.902Z,9.70
2019-05-02T15:54:08.896Z,9.70
2019-05-02T15:57:01.245Z,9.70
2019-05-02T15:59:37.640Z,9.60
2019-05-02T16:02:22.967Z,9.60
2019-05-02T16:04:49.639Z,9.60
2019-05-02T16:07:18.461Z,9.60
2019-05-02T16:09:51.346Z,9.60
2019-05-02T16:12:17.914Z,9.60
2019-05-02T16:14:46.718Z,9.50
2019-05-02T16:17:17.772Z,9.40
2019-05-02T16:19:47.812Z,9.40
2019-05-02T16:22:18.047Z,9.30
2019-05-02T16:24:48.976Z,9.30
2019-05-02T16:27:21.951Z,9.30
2019-05-02T16:29:47.944Z,9.20
2019-05-02T16:32:18.489Z,9.20
2019-05-02T16:34:55.083Z,9.20
2019-05-02T16:37:24.373Z,9.20
2019-05-02T16:39:53.299Z,9.20
2019-05-02T16:42:22.710Z,9.10
2019-05-02T16:44:54.299Z,9.00
2019-05-02T16:47:22.353Z,9.00
2019-05-02T16:49:53.245Z,8.90
2019-05-02T16:52:22.156Z,8.80
2019-05-02T16:54:52.638Z,8.70
2019-05-02T16:57:22.235Z,8.50
2019-05-02T16:59:53.901Z,8.50
2019-05-02T17:02:22.165Z,8.40
2019-05-02T17:04:54.191Z,8.40
2019-05-02T17:07:23.158Z,8.40
2019-05-02T17:09:56.357Z,8.40
2019-05-02T17:12:25.166Z,8.30
2019-05-02T17:15:14.121Z,8.20
2019-05-02T17:17:43.449Z,8.20
2019-05-02T17:20:16.473Z,8.20
2019-05-02T17:22:43.954Z,8.20
2019-05-02T17:25:13.654Z,8.20
2019-05-02T17:27:42.561Z,8.20
2019-05-02T17:30:12.118Z,8.20
2019-05-02T17:32:41.553Z,8.30
2019-05-02T17:35:12.356Z,8.30
2019-05-02T17:37:48.632Z,8.30
2019-05-02T17:40:12.325Z,8.20
2019-05-02T17:42:44.473Z,8.20
2019-05-02T17:45:14.456Z,8.20
2019-05-02T17:47:43.346Z,8.20
2019-05-02T17:50:22.067Z,8.20
2019-05-02T17:52:56.234Z,8.20
2019-05-02T17:55:26.317Z,8.20
2019-05-02T17:57:55.140Z,8.20
2019-05-02T18:00:28.863Z,8.20
2019-05-02T18:02:57.777Z,8.20
2019-05-02T18:05:31.284Z,8.10
2019-05-02T18:07:57.221Z,8.20
2019-05-02T18:10:26.128Z,8.10
2019-05-02T18:12:58.234Z,8.10
2019-05-02T18:15:29.958Z,8.10
2019-05-02T18:17:59.671Z,8.10
2019-05-02T18:20:26.572Z,8.10
2019-05-02T18:22:55.376Z,8.10
2019-05-02T18:25:25.395Z,7.90
2019-05-02T18:27:54.522Z,7.80
2019-05-02T18:30:26.869Z,7.70
2019-05-02T18:32:57.901Z,7.60
2019-05-02T18:35:24.520Z,7.50
2019-05-02T18:37:53.431Z,7.40
2019-05-02T18:40:27.709Z,7.40
2019-05-02T18:42:56.447Z,7.30
2019-05-02T18:45:28.564Z,7.30
2019-05-02T18:48:02.493Z,7.30
2019-05-02T18:50:31.954Z,7.30
2019-05-02T18:53:01.206Z,7.30
2019-05-02T18:55:31.680Z,7.20
2019-05-02T18:58:02.431Z,7.20
2019-05-02T19:00:36.178Z,7.00
2019-05-02T19:03:02.737Z,7.00
2019-05-02T19:05:32.508Z,6.90
2019-05-02T19:08:02.589Z,6.90
2019-05-02T19:10:32.358Z,6.80
2019-05-02T19:13:05.909Z,6.80
2019-05-02T19:15:34.565Z,6.70
2019-05-02T19:18:02.873Z,6.70
2019-05-02T19:20:57.370Z,6.80
2019-05-02T19:23:23.607Z,6.80
2019-05-02T19:25:52.788Z,6.70
2019-05-02T19:28:23.772Z,6.70
2019-05-02T19:30:52.564Z,6.70
2019-05-02T19:33:23.412Z,6.80
2019-05-02T19:35:52.562Z,6.80
2019-05-02T19:38:26.163Z,6.80
2019-05-02T19:40:52.131Z,6.70
2019-05-02T19:43:23.672Z,6.70
2019-05-02T19:45:54.035Z,6.70
2019-05-02T19:48:27.381Z,6.70
2019-05-02T19:50:53.694Z,6.70
2019-05-02T19:53:22.963Z,6.60
2019-05-02T19:55:52.171Z,6.60
2019-05-02T19:58:21.214Z,6.50
2019-05-02T20:00:50.327Z,6.40
2019-05-02T20:03:25.959Z,6.40
2019-05-02T20:05:51.919Z,6.40
2019-05-02T20:08:24.333Z,6.40
2019-05-02T20:10:56.731Z,6.30
2019-05-02T20:13:28.133Z,6.30
2019-05-02T20:15:57.279Z,6.20
2019-05-02T20:18:28.388Z,6.20
2019-05-02T20:20:58.884Z,6.20
2019-05-02T20:23:31.655Z,6.10
2019-05-02T20:25:58.321Z,6.10
2019-05-02T20:28:27.448Z,6.10
2019-05-02T20:30:56.356Z,6.00
2019-05-02T20:33:25.144Z,6.00
2019-05-02T20:35:53.966Z,5.90
2019-05-02T20:38:22.774Z,5.80
2019-05-02T20:40:52.215Z,5.90
2019-05-02T20:43:22.667Z,5.80
2019-05-02T20:45:52.849Z,5.70
2019-05-02T20:48:22.694Z,5.70
2019-05-02T20:50:52.186Z,5.70
2019-05-02T20:53:28.771Z,5.60
2019-05-02T20:55:52.413Z,5.50
2019-05-02T20:58:22.173Z,5.50
2019-05-02T21:01:04.755Z,5.50
2019-05-02T21:03:21.552Z,5.50
2019-05-02T21:06:02.953Z,5.40
2019-05-02T21:08:33.205Z,5.40
2019-05-02T21:11:03.956Z,5.40
2019-05-02T21:13:32.964Z,5.30
2019-05-02T21:16:01.907Z,5.30
2019-05-02T21:18:32.669Z,5.20
2019-05-02T21:21:01.610Z,5.20
2019-05-02T21:23:43.404Z,5.10
2019-05-02T21:26:01.859Z,5.10
2019-05-02T21:28:32.852Z,5.00
2019-05-02T21:31:02.937Z,5.00
2019-05-02T21:33:37.837Z,4.90
2019-05-02T21:36:07.032Z,4.90
2019-05-02T21:38:36.050Z,4.80
2019-05-02T21:41:07.836Z,4.70
2019-05-02T21:43:36.745Z,4.60
2019-05-02T21:46:05.547Z,4.60
2019-05-02T21:48:34.457Z,4.60
2019-05-02T21:51:12.109Z,4.60
2019-05-02T21:53:55.150Z,4.50
2019-05-02T21:56:21.749Z,4.40
2019-05-02T21:59:12.162Z,4.40
2019-05-02T22:01:52.416Z,4.30
2019-05-02T22:04:22.460Z,4.30
2019-05-02T22:06:52.689Z,4.30
2019-05-02T22:09:23.034Z,4.20
2019-05-02T22:11:52.285Z,4.20
2019-05-02T22:14:22.343Z,4.10
2019-05-02T22:16:52.945Z,4.10
2019-05-02T22:19:22.037Z,4.10
2019-05-02T22:21:52.530Z,4.10
2019-05-02T22:24:21.287Z,4.00
2019-05-02T22:26:50.091Z,4.00
2019-05-02T22:29:19.000Z,4.00
2019-05-02T22:31:48.884Z,4.10
2019-05-02T22:34:17.843Z,4.10
2019-05-02T22:36:46.651Z,4.10
2019-05-02T22:39:17.084Z,4.10
2019-05-02T22:41:45.996Z,4.00
2019-05-02T22:44:14.903Z,4.00
2019-05-02T22:46:44.509Z,4.00
2019-05-02T22:49:14.673Z,4.10
2019-05-02T22:51:43.994Z,4.10
2019-05-02T22:54:24.050Z,4.10
2019-05-02T22:56:43.742Z,4.10
2019-05-02T22:59:12.530Z,4.20
2019-05-02T23:01:42.139Z,4.20
2019-05-02T23:04:12.780Z,4.10
2019-05-02T23:06:43.980Z,4.10
2019-05-02T23:09:12.717Z,4.20
2019-05-02T23:11:42.720Z,4.10
2019-05-02T23:14:11.832Z,4.10
2019-05-02T23:16:42.722Z,4.10
2019-05-02T23:19:12.313Z,4.00
2019-05-02T23:21:42.327Z,4.00
2019-05-02T23:24:14.535Z,4.00
2019-05-02T23:26:48.338Z,4.00
2019-05-02T23:29:18.986Z,4.00
2019-05-02T23:31:47.896Z,4.00
2019-05-02T23:34:16.799Z,3.90
2019-05-02T23:36:45.605Z,3.90
2019-05-02T23:39:14.408Z,3.90
2019-05-02T23:41:43.214Z,3.90
2019-05-02T23:44:12.389Z,3.90
2019-05-02T23:46:42.397Z,3.90
2019-05-02T23:49:12.748Z,3.90
2019-05-02T23:51:42.742Z,3.90
2019-05-02T23:54:12.783Z,3.90
2019-05-02T23:56:43.033Z,3.90
2019-05-02T23:59:12.347Z,3.80
